createdAt,value
2023-08-15T00:00:03.050Z,0
2023-08-15T00:05:02.895Z,0
2023-08-15T00:10:02.867Z,0
2023-08-15T00:15:02.902Z,0
2023-08-15T00:20:02.858Z,0
2023-08-15T00:25:02.977Z,0
2023-08-15T00:30:02.911Z,0
2023-08-15T00:35:02.909Z,0
2023-08-15T00:40:02.865Z,0
2023-08-15T00:45:02.929Z,0
2023-08-15T00:50:03.083Z,0
2023-08-15T00:55:02.891Z,0
2023-08-15T01:00:02.928Z,0
2023-08-15T01:05:02.911Z,0
2023-08-15T01:10:02.961Z,0
2023-08-15T01:15:03.048Z,0
2023-08-15T01:20:02.925Z,0
2023-08-15T01:25:02.938Z,0
2023-08-15T01:30:02.963Z,0
2023-08-15T01:35:03.134Z,0
2023-08-15T01:40:03.147Z,0
2023-08-15T01:45:02.964Z,0
2023-08-15T01:50:02.949Z,0
2023-08-15T01:55:02.947Z,0
2023-08-15T02:00:02.953Z,0
2023-08-15T02:05:03.229Z,0
2023-08-15T02:10:02.980Z,0
2023-08-15T02:15:02.969Z,0
2023-08-15T02:20:02.977Z,0
2023-08-15T02:25:02.963Z,0
2023-08-15T02:30:03.126Z,0
2023-08-15T02:35:03.016Z,0
2023-08-15T02:40:03.050Z,0
2023-08-15T02:45:02.970Z,0
2023-08-15T02:50:03.129Z,0
2023-08-15T02:55:02.980Z,0
2023-08-15T03:00:03.030Z,0
2023-08-15T03:05:03.192Z,0
2023-08-15T03:10:00.723Z,0
2023-08-15T03:15:00.611Z,0
2023-08-15T03:20:00.586Z,0
2023-08-15T03:25:00.881Z,0
2023-08-15T03:30:00.752Z,0
2023-08-15T03:35:00.736Z,0
2023-08-15T03:40:00.624Z,0
2023-08-15T03:45:00.648Z,0
2023-08-15T03:50:00.992Z,0
2023-08-15T03:55:00.651Z,0
2023-08-15T04:00:00.786Z,0
2023-08-15T04:05:00.709Z,0
2023-08-15T04:10:00.681Z,0
2023-08-15T04:15:00.673Z,0.22399999999999998
2023-08-15T04:20:00.761Z,0.30995767195767193
2023-08-15T04:25:00.788Z,0.30255026455026457
2023-08-15T04:30:00.661Z,0.42025396825396827
2023-08-15T04:35:00.763Z,0.5091640211640212
2023-08-15T04:40:00.757Z,0.6603068783068784
2023-08-15T04:45:00.794Z,0.9017989417989418
2023-08-15T04:50:00.830Z,1.0612380952380953
2023-08-15T04:55:00.730Z,1.3064021164021162
2023-08-15T05:00:00.819Z,1.3771111111111112
2023-08-15T05:05:00.783Z,1.5321375661375662
2023-08-15T05:10:00.724Z,1.6954497354497353
2023-08-15T05:15:00.762Z,2.0514708994708997
2023-08-15T05:20:00.753Z,2.38168253968254
2023-08-15T05:25:00.855Z,2.857862433862434
2023-08-15T05:30:00.753Z,3.2927830687830686
2023-08-15T05:35:00.837Z,3.497534391534392
2023-08-15T05:40:03.435Z,3.9184761904761904
2023-08-15T05:45:00.881Z,4.420761904761904
2023-08-15T05:50:00.820Z,5.065714285714286
2023-08-15T05:55:00.753Z,5.860539682539683
2023-08-15T06:00:00.917Z,6.838486772486772
2023-08-15T06:05:00.804Z,7.92189417989418
2023-08-15T06:10:00.929Z,9.045322751322752
2023-08-15T06:15:00.819Z,10.504931216931217
2023-08-15T06:20:00.864Z,11.985629629629631
2023-08-15T06:25:00.891Z,13.608074074074072
2023-08-15T06:30:00.773Z,15.250910052910053
2023-08-15T06:35:00.924Z,17.023089947089947
2023-08-15T06:40:00.805Z,19.01474074074074
2023-08-15T06:45:00.957Z,20.96962962962963
2023-08-15T06:50:00.784Z,22.961820105820106
2023-08-15T06:55:00.844Z,24.70384126984127
2023-08-15T07:00:00.833Z,26.37883597883598
2023-08-15T07:05:00.854Z,27.366592592592593
2023-08-15T07:10:00.839Z,29.424507936507936
2023-08-15T07:15:00.843Z,31.66794708994709
2023-08-15T07:20:00.936Z,33.69701587301587
2023-08-15T07:25:00.844Z,35.24530158730158
2023-08-15T07:30:00.922Z,36.94156613756614
2023-08-15T07:35:00.867Z,38.16268783068784
2023-08-15T07:40:00.920Z,39.97607407407408
2023-08-15T07:45:00.882Z,41.280031746031746
2023-08-15T07:50:00.891Z,46.40549206349206
2023-08-15T07:55:00.974Z,48.25914285714286
2023-08-15T08:00:00.942Z,50.38115343915344
2023-08-15T08:05:00.924Z,48.937428571428576
2023-08-15T08:10:00.846Z,45.653164021164024
2023-08-15T08:15:00.881Z,49.170793650793655
2023-08-15T08:20:01.006Z,50.60045502645502
2023-08-15T08:25:00.904Z,51.667439153439155
2023-08-15T08:30:01.064Z,52.51688888888889
2023-08-15T08:35:00.931Z,53.46691005291005
2023-08-15T08:40:01.091Z,54.738941798941795
2023-08-15T08:45:00.937Z,57.426920634920634
2023-08-15T08:50:00.934Z,43.45336507936508
2023-08-15T08:55:00.894Z,61.53026455026455
2023-08-15T09:00:00.967Z,61.35924867724868
2023-08-15T09:05:01.098Z,65.95508994708995
2023-08-15T09:10:01.091Z,50.825195767195765
2023-08-15T09:15:00.984Z,55.26823280423281
2023-08-15T09:20:00.933Z,62.445037037037046
2023-08-15T09:25:00.950Z,54.53992592592593
2023-08-15T09:30:00.923Z,61.68810582010582
2023-08-15T09:35:01.013Z,36.03637037037037
2023-08-15T09:40:01.124Z,29.601079365079368
2023-08-15T09:45:05.977Z,31.36419047619048
2023-08-15T09:50:01.054Z,22.80194708994709
2023-08-15T09:55:00.921Z,33.53404232804233
2023-08-15T10:00:01.004Z,40.77131216931217
2023-08-15T10:05:00.977Z,40.91650793650794
2023-08-15T10:10:00.961Z,40.14166137566137
2023-08-15T10:15:00.933Z,37.4724126984127
2023-08-15T10:20:01.042Z,47.4858201058201
2023-08-15T10:25:01.747Z,54.66337566137567
2023-08-15T10:30:01.078Z,61.16516402116402
2023-08-15T10:35:01.070Z,35.668952380952376
2023-08-15T10:40:01.024Z,39.23111111111111
2023-08-15T10:45:01.033Z,34.528285714285715
2023-08-15T10:50:01.016Z,35.900899470899475
2023-08-15T10:55:00.983Z,47.877904761904766
2023-08-15T11:00:01.156Z,43.5309417989418
2023-08-15T11:05:01.060Z,47.699015873015874
2023-08-15T11:10:01.162Z,53.11957671957672
2023-08-15T11:15:01.036Z,31.436402116402117
2023-08-15T11:20:01.080Z,37.12526984126984
2023-08-15T11:25:01.052Z,36.48766137566138
2023-08-15T11:30:01.019Z,21.15688888888889
2023-08-15T11:35:01.199Z,22.389968253968252
2023-08-15T11:40:01.031Z,22.92673015873016
2023-08-15T11:45:01.230Z,16.953904761904763
2023-08-15T11:50:01.261Z,18.250370370370373
2023-08-15T11:55:01.112Z,29.643650793650796
2023-08-15T12:00:01.056Z,18.00263492063492
2023-08-15T12:05:01.175Z,9.282708994708996
2023-08-15T12:15:01.254Z,5.22005291005291
2023-08-15T12:20:01.329Z,4.29162962962963
2023-08-15T12:25:01.115Z,3.2104761904761907
2023-08-15T12:30:11.293Z,6.11247619047619
2023-08-15T12:35:01.127Z,7.401164021164021
2023-08-15T12:40:01.190Z,4.404211640211641
2023-08-15T12:45:01.092Z,4.08899470899471
2023-08-15T12:50:01.146Z,7.644433862433862
2023-08-15T12:55:02.332Z,8.095195767195767
2023-08-15T13:00:01.111Z,7.062306878306879
2023-08-15T13:05:02.296Z,5.191957671957672
2023-08-15T13:10:01.135Z,6.1291534391534395
2023-08-15T13:15:01.093Z,8.422391534391535
2023-08-15T13:20:01.143Z,8.879206349206349
2023-08-15T13:25:01.188Z,12.09736507936508
2023-08-15T13:30:01.271Z,7.919026455026455
2023-08-15T13:35:01.157Z,6.9536296296296305
2023-08-15T13:40:01.480Z,7.244973544973544
2023-08-15T13:45:03.271Z,8.226507936507936
2023-08-15T13:50:01.145Z,5.973216931216932
2023-08-15T13:55:01.165Z,4.267767195767196
2023-08-15T14:00:01.161Z,8.937915343915344
2023-08-15T14:05:01.226Z,11.01594708994709
2023-08-15T14:10:01.249Z,13.049460317460317
2023-08-15T14:15:01.430Z,13.079037037037036
2023-08-15T14:20:01.245Z,8.776751322751323
2023-08-15T14:25:01.281Z,23.349259259259263
2023-08-15T14:30:01.153Z,36.66486772486772
2023-08-15T14:35:01.220Z,68.52125925925925
2023-08-15T14:40:01.221Z,59.69764021164021
2023-08-15T14:45:01.206Z,52.699534391534385
2023-08-15T14:50:01.368Z,51.80015873015873
2023-08-15T14:55:01.214Z,52.844772486772484
2023-08-15T15:00:01.354Z,49.969291005291005
2023-08-15T15:05:01.284Z,53.54568253968254
2023-08-15T15:10:01.384Z,50.904634920634926
2023-08-15T15:15:01.258Z,49.427534391534394
2023-08-15T15:20:01.375Z,48.551576719576715
2023-08-15T15:25:01.262Z,47.49650793650794
2023-08-15T15:30:01.235Z,45.9898835978836
2023-08-15T15:35:01.402Z,44.70812698412698
2023-08-15T15:40:01.230Z,42.80279365079365
2023-08-15T15:45:01.384Z,40.8614708994709
2023-08-15T15:50:01.240Z,39.43863492063492
2023-08-15T15:55:01.326Z,37.69834920634921
2023-08-15T16:00:01.275Z,36.05081481481482
2023-08-15T16:05:01.304Z,34.50896296296296
2023-08-15T16:10:01.374Z,32.97736507936508
2023-08-15T16:15:01.312Z,30.105650793650796
2023-08-15T16:20:01.566Z,29.14343915343915
2023-08-15T16:25:01.286Z,27.17647619047619
2023-08-15T16:30:11.240Z,25.167396825396825
2023-08-15T16:35:01.432Z,23.1557671957672
2023-08-15T16:40:01.388Z,22.146857142857144
2023-08-15T16:45:01.349Z,21.310402116402116
2023-08-15T16:50:01.314Z,19.308740740740742
2023-08-15T16:55:01.280Z,17.03026455026455
2023-08-15T17:00:01.325Z,14.834275132275131
2023-08-15T17:05:01.468Z,12.700359788359789
2023-08-15T17:10:01.379Z,11.315386243386245
2023-08-15T17:15:01.406Z,9.935174603174604
2023-08-15T17:20:01.375Z,6.095883597883598
2023-08-15T17:25:01.373Z,5.501724867724868
2023-08-15T17:30:01.343Z,3.51394708994709
2023-08-15T17:35:01.360Z,2.9131428571428577
2023-08-15T17:40:01.511Z,2.5500529100529103
2023-08-15T17:45:01.443Z,2.4033333333333333
2023-08-15T17:50:01.473Z,1.6398518518518521
2023-08-15T17:55:01.397Z,0.9936296296296295
2023-08-15T18:00:01.356Z,1.012920634920635
2023-08-15T18:05:01.391Z,1.060021164021164
2023-08-15T18:10:01.452Z,0.49291005291005285
2023-08-15T18:15:01.542Z,0.4186666666666667
2023-08-15T18:20:01.417Z,0.289989417989418
2023-08-15T18:25:01.489Z,0.33063492063492067
2023-08-15T18:30:01.471Z,0.24775661375661379
2023-08-15T18:35:01.461Z,0.21767195767195768
2023-08-15T18:40:01.417Z,0
2023-08-15T18:45:01.419Z,0
2023-08-15T18:50:01.570Z,0
2023-08-15T18:55:01.507Z,0
2023-08-15T19:00:01.549Z,0
2023-08-15T19:05:01.412Z,0
2023-08-15T19:10:01.449Z,0
2023-08-15T19:15:01.454Z,0
2023-08-15T19:20:01.451Z,0
2023-08-15T19:25:01.649Z,0
2023-08-15T19:30:01.493Z,0
2023-08-15T19:35:01.626Z,0
2023-08-15T19:40:01.498Z,0
2023-08-15T19:45:01.665Z,0
2023-08-15T19:50:01.471Z,0
2023-08-15T19:55:01.577Z,0
2023-08-15T20:00:01.543Z,0
2023-08-15T20:05:01.591Z,0
2023-08-15T20:10:10.289Z,0
2023-08-15T20:15:01.516Z,0
2023-08-15T20:20:01.581Z,0
2023-08-15T20:25:01.570Z,0
2023-08-15T20:30:01.570Z,0
2023-08-15T20:35:01.479Z,0
2023-08-15T20:40:01.548Z,0
2023-08-15T20:45:01.732Z,0
2023-08-15T20:50:01.521Z,0
2023-08-15T20:55:01.640Z,0
2023-08-15T21:00:01.542Z,0
2023-08-15T21:05:02.051Z,0
2023-08-15T21:10:01.931Z,0
2023-08-15T21:15:01.540Z,0
2023-08-15T21:20:01.625Z,0
2023-08-15T21:25:01.555Z,0
2023-08-15T21:30:01.791Z,0
2023-08-15T21:35:01.537Z,0
2023-08-15T21:40:01.647Z,0
2023-08-15T21:45:01.536Z,0
2023-08-15T21:50:01.591Z,0
2023-08-15T21:55:01.649Z,0
2023-08-15T22:00:01.695Z,0
2023-08-15T22:05:01.730Z,0
2023-08-15T22:10:01.611Z,0
2023-08-15T22:15:01.761Z,0
2023-08-15T22:20:01.698Z,0
2023-08-15T22:25:06.246Z,0
2023-08-15T22:30:01.587Z,0
2023-08-15T22:35:01.685Z,0
2023-08-15T22:40:01.808Z,0
2023-08-15T22:45:01.676Z,0
2023-08-15T22:50:01.787Z,0
2023-08-15T22:55:01.598Z,0
2023-08-15T23:00:01.619Z,0
2023-08-15T23:05:01.615Z,0
2023-08-15T23:10:01.646Z,0
2023-08-15T23:15:01.763Z,0
2023-08-15T23:20:01.685Z,0
2023-08-15T23:25:01.828Z,0
2023-08-15T23:30:01.614Z,0
2023-08-15T23:35:01.723Z,0
2023-08-15T23:40:01.684Z,0
2023-08-15T23:45:01.642Z,0
2023-08-15T23:50:01.784Z,0
2023-08-15T23:55:01.673Z,0
